createdAt,value
2022-08-28T00:00:57.172Z,0.00
2022-08-28T00:01:57.172Z,0.00
2022-08-28T00:02:57.217Z,0.00
2022-08-28T00:03:57.118Z,0.00
2022-08-28T00:04:57.200Z,0.00
2022-08-28T00:05:57.127Z,0.00
2022-08-28T00:06:57.116Z,0.00
2022-08-28T00:07:57.140Z,0.00
2022-08-28T00:08:57.120Z,0.00
2022-08-28T00:09:57.106Z,0.00
2022-08-28T00:10:57.060Z,0.00
2022-08-28T00:11:57.048Z,0.00
2022-08-28T00:12:57.076Z,0.00
2022-08-28T00:13:57.041Z,0.00
2022-08-28T00:14:57.052Z,0.00
2022-08-28T00:15:57.126Z,0.00
2022-08-28T00:16:57.038Z,0.00
2022-08-28T00:17:57.049Z,0.00
2022-08-28T00:18:57.084Z,0.00
2022-08-28T00:19:57.045Z,0.00
2022-08-28T00:20:56.980Z,0.00
2022-08-28T00:21:56.996Z,0.00
2022-08-28T00:22:57.012Z,0.00
2022-08-28T00:23:57.004Z,0.00
2022-08-28T00:24:56.987Z,0.00
2022-08-28T00:25:56.957Z,0.00
2022-08-28T00:26:57.024Z,0.00
2022-08-28T00:27:56.962Z,0.00
2022-08-28T00:28:57.054Z,0.00
2022-08-28T00:29:56.946Z,0.00
2022-08-28T00:30:57.020Z,0.00
2022-08-28T00:31:56.936Z,0.00
2022-08-28T00:32:56.943Z,0.00
2022-08-28T00:33:56.909Z,0.00
2022-08-28T00:34:56.935Z,0.00
2022-08-28T00:35:56.916Z,0.00
2022-08-28T00:36:56.905Z,0.00
2022-08-28T00:37:56.903Z,0.00
2022-08-28T00:38:56.850Z,0.00
2022-08-28T00:39:56.968Z,0.00
2022-08-28T00:40:56.907Z,0.00
2022-08-28T00:41:57.802Z,0.00
2022-08-28T00:42:56.851Z,0.00
2022-08-28T00:43:56.845Z,0.00
2022-08-28T00:44:56.839Z,0.00
2022-08-28T00:45:56.844Z,0.00
2022-08-28T00:46:56.797Z,0.00
2022-08-28T00:47:56.852Z,0.00
2022-08-28T00:48:56.801Z,0.00
2022-08-28T00:49:56.805Z,0.00
2022-08-28T00:51:00.612Z,0.00
2022-08-28T00:51:56.800Z,0.00
2022-08-28T00:52:56.796Z,0.00
2022-08-28T00:53:58.924Z,0.00
2022-08-28T00:54:59.174Z,0.00
2022-08-28T00:55:56.731Z,0.00
2022-08-28T00:56:56.763Z,0.00
2022-08-28T00:57:56.711Z,0.00
2022-08-28T00:58:56.779Z,0.00
2022-08-28T00:59:56.708Z,0.00
2022-08-28T01:00:56.678Z,0.00
2022-08-28T01:01:56.817Z,0.00
2022-08-28T01:02:56.727Z,0.00
2022-08-28T01:03:56.687Z,0.00
2022-08-28T01:04:56.699Z,0.00
2022-08-28T01:05:56.631Z,0.00
2022-08-28T01:06:56.761Z,0.00
2022-08-28T01:07:56.675Z,0.00
2022-08-28T01:08:56.631Z,0.00
2022-08-28T01:09:56.631Z,0.00
2022-08-28T01:10:56.621Z,0.00
2022-08-28T01:11:56.675Z,0.00
2022-08-28T01:12:56.624Z,0.00
2022-08-28T01:13:56.568Z,0.00
2022-08-28T01:14:56.633Z,0.00
2022-08-28T01:15:56.616Z,0.00
2022-08-28T01:16:56.613Z,0.00
2022-08-28T01:17:56.580Z,0.00
2022-08-28T01:18:56.649Z,0.00
2022-08-28T01:19:56.572Z,0.00
2022-08-28T01:20:56.555Z,0.00
2022-08-28T01:21:56.542Z,0.00
2022-08-28T01:22:56.532Z,0.00
2022-08-28T01:23:56.532Z,0.00
2022-08-28T01:24:56.532Z,0.00
2022-08-28T01:25:56.539Z,0.00
2022-08-28T01:26:56.505Z,0.00
2022-08-28T01:27:56.481Z,0.00
2022-08-28T01:28:56.508Z,0.00
2022-08-28T01:29:56.485Z,0.00
2022-08-28T01:30:56.513Z,0.00
2022-08-28T01:31:56.482Z,0.00
2022-08-28T01:32:56.473Z,0.00
2022-08-28T01:33:56.453Z,0.00
2022-08-28T01:34:56.459Z,0.00
2022-08-28T01:35:56.532Z,0.00
2022-08-28T01:36:56.448Z,0.00
2022-08-28T01:37:56.413Z,0.00
2022-08-28T01:38:56.424Z,0.00
2022-08-28T01:39:57.323Z,0.00
2022-08-28T01:40:56.411Z,0.00
2022-08-28T01:41:56.413Z,0.00
2022-08-28T01:42:57.302Z,0.00
2022-08-28T01:43:56.366Z,0.00
2022-08-28T01:44:56.350Z,0.00
2022-08-28T02:02:49.906Z,0.00
2022-08-28T02:03:49.984Z,0.00
2022-08-28T02:04:49.963Z,0.00
2022-08-28T02:05:51.101Z,0.00
2022-08-28T02:06:52.016Z,0.00
2022-08-28T02:07:50.989Z,0.00
2022-08-28T02:08:51.020Z,0.00
2022-08-28T02:09:51.027Z,0.00
2022-08-28T02:10:51.059Z,0.00
2022-08-28T02:11:50.995Z,0.00
2022-08-28T02:12:51.013Z,0.00
2022-08-28T02:13:51.012Z,0.00
2022-08-28T02:14:50.978Z,0.00
2022-08-28T02:15:51.029Z,0.00
2022-08-28T02:16:50.976Z,0.00
2022-08-28T02:17:50.983Z,0.00
2022-08-28T02:18:50.957Z,0.00
2022-08-28T02:19:50.911Z,0.00
2022-08-28T02:20:50.915Z,0.00
2022-08-28T02:21:50.983Z,0.00
2022-08-28T02:23:24.346Z,0.00
2022-08-28T02:23:50.948Z,0.00
2022-08-28T02:24:50.983Z,0.00
2022-08-28T02:25:50.985Z,0.00
2022-08-28T02:26:50.937Z,0.00
2022-08-28T02:27:50.951Z,0.00
2022-08-28T02:28:51.665Z,0.00
2022-08-28T02:29:50.995Z,0.00
2022-08-28T02:30:50.978Z,0.00
2022-08-28T02:32:25.645Z,0.00
2022-08-28T02:32:50.984Z,0.00
2022-08-28T02:33:53.019Z,0.00
2022-08-28T02:34:52.508Z,0.00
2022-08-28T02:35:50.985Z,0.00
2022-08-28T02:36:50.929Z,0.00
2022-08-28T02:37:51.508Z,0.00
2022-08-28T02:38:55.361Z,0.00
2022-08-28T02:39:53.570Z,0.00
2022-08-28T02:41:27.089Z,0.00
2022-08-28T02:41:51.259Z,0.00
2022-08-28T02:42:51.850Z,0.00
2022-08-28T02:43:50.909Z,0.00
2022-08-28T02:44:50.956Z,0.00
2022-08-28T02:45:51.899Z,0.00
2022-08-28T02:46:50.828Z,0.00
2022-08-28T02:47:50.830Z,0.00
2022-08-28T02:48:50.836Z,0.00
2022-08-28T02:49:50.780Z,0.00
2022-08-28T02:50:50.884Z,0.00
2022-08-28T02:52:25.078Z,0.00
2022-08-28T02:52:51.719Z,0.00
2022-08-28T02:53:50.721Z,0.00
2022-08-28T02:54:50.816Z,0.00
2022-08-28T02:55:50.856Z,0.00
2022-08-28T02:56:50.809Z,0.00
2022-08-28T02:58:24.219Z,0.00
2022-08-28T02:58:50.770Z,0.00
2022-08-28T02:59:51.448Z,0.00
2022-08-28T03:00:50.659Z,0.00
2022-08-28T03:01:50.799Z,0.00
2022-08-28T03:02:50.726Z,0.00
2022-08-28T03:03:50.617Z,0.00
2022-08-28T03:04:50.670Z,0.00
2022-08-28T03:05:50.604Z,0.00
2022-08-28T03:06:50.671Z,0.00
2022-08-28T03:07:50.623Z,0.00
2022-08-28T03:08:50.622Z,0.00
2022-08-28T03:09:50.621Z,0.00
2022-08-28T03:10:50.623Z,0.00
2022-08-28T03:11:50.625Z,0.00
2022-08-28T03:12:50.679Z,0.00
2022-08-28T03:13:50.557Z,0.00
2022-08-28T03:14:50.562Z,0.00
2022-08-28T03:15:51.957Z,0.00
2022-08-28T03:16:51.633Z,0.00
2022-08-28T03:17:50.647Z,0.00
2022-08-28T03:18:50.565Z,0.00
2022-08-28T03:19:50.516Z,0.00
2022-08-28T03:20:50.584Z,0.00
2022-08-28T03:21:50.703Z,0.00
2022-08-28T03:22:50.612Z,0.00
2022-08-28T03:23:50.473Z,0.00
2022-08-28T03:24:50.536Z,0.00
2022-08-28T03:25:50.540Z,0.00
2022-08-28T03:26:50.509Z,0.00
2022-08-28T03:27:50.595Z,0.00
2022-08-28T03:28:50.591Z,0.00
2022-08-28T03:29:50.553Z,0.00
2022-08-28T03:30:50.690Z,0.00
2022-08-28T03:31:50.430Z,0.00
2022-08-28T03:32:50.444Z,0.00
2022-08-28T03:33:50.425Z,0.00
2022-08-28T03:34:50.377Z,0.00
2022-08-28T03:35:50.482Z,0.00
2022-08-28T03:36:51.124Z,0.00
2022-08-28T03:37:50.859Z,0.00
2022-08-28T03:38:50.473Z,0.00
2022-08-28T03:39:50.582Z,0.00
2022-08-28T03:40:50.559Z,0.00
2022-08-28T03:41:51.343Z,0.00
2022-08-28T03:42:53.036Z,0.00
2022-08-28T03:43:50.403Z,0.00
2022-08-28T03:45:23.793Z,0.00
2022-08-28T03:45:50.728Z,0.00
2022-08-28T03:46:50.449Z,0.00
2022-08-28T04:02:43.951Z,0.00
2022-08-28T04:03:43.858Z,0.00
2022-08-28T04:04:46.024Z,0.00
2022-08-28T04:05:46.028Z,0.00
2022-08-28T04:06:45.297Z,0.00
2022-08-28T04:07:45.656Z,0.00
2022-08-28T04:08:45.051Z,0.00
2022-08-28T04:09:45.713Z,0.00
2022-08-28T04:10:46.033Z,0.00
2022-08-28T04:11:45.194Z,0.00
2022-08-28T04:12:47.085Z,0.00
2022-08-28T04:13:45.304Z,0.00
2022-08-28T04:14:45.136Z,0.00
2022-08-28T04:15:45.318Z,0.00
2022-08-28T04:16:45.938Z,0.00
2022-08-28T04:17:45.163Z,0.00
2022-08-28T04:18:45.710Z,0.00
2022-08-28T04:19:45.416Z,0.00
2022-08-28T04:20:46.454Z,0.00
2022-08-28T04:21:45.662Z,0.00
2022-08-28T04:22:47.073Z,0.00
2022-08-28T04:23:45.096Z,5.62
2022-08-28T04:24:45.303Z,5.62
2022-08-28T04:25:45.164Z,5.62
2022-08-28T04:26:45.554Z,5.62
2022-08-28T04:27:45.380Z,5.62
2022-08-28T04:28:45.578Z,5.62
2022-08-28T04:29:46.140Z,5.62
2022-08-28T04:30:45.473Z,11.25
2022-08-28T04:31:46.094Z,11.25
2022-08-28T04:32:45.068Z,11.25
2022-08-28T04:33:45.355Z,11.25
2022-08-28T04:34:47.094Z,11.25
2022-08-28T04:35:44.963Z,16.88
2022-08-28T04:36:45.021Z,16.88
2022-08-28T04:37:45.107Z,16.88
2022-08-28T04:38:45.327Z,16.88
2022-08-28T04:39:44.955Z,22.50
2022-08-28T04:40:45.884Z,22.50
2022-08-28T04:41:45.010Z,22.50
2022-08-28T04:42:45.967Z,22.50
2022-08-28T04:43:44.955Z,28.12
2022-08-28T04:44:45.748Z,28.12
2022-08-28T04:45:44.845Z,33.75
2022-08-28T04:46:44.905Z,39.38
2022-08-28T04:47:44.877Z,39.38
2022-08-28T04:48:44.793Z,45.00
2022-08-28T04:49:44.842Z,50.62
2022-08-28T04:50:45.381Z,50.62
2022-08-28T04:51:47.037Z,56.25
2022-08-28T04:52:46.506Z,61.88
2022-08-28T04:53:44.779Z,67.50
2022-08-28T04:55:18.243Z,73.12
2022-08-28T04:56:12.066Z,78.75
2022-08-28T04:56:44.957Z,84.38
2022-08-28T04:57:44.856Z,90.00
2022-08-28T04:58:44.906Z,90.00
2022-08-28T04:59:45.122Z,95.62
2022-08-28T05:00:45.418Z,101.25
2022-08-28T05:01:45.552Z,106.88
2022-08-28T05:02:44.707Z,106.88
2022-08-28T05:03:44.914Z,112.50
2022-08-28T05:04:45.444Z,118.12
2022-08-28T05:05:44.772Z,123.75
2022-08-28T05:06:44.886Z,123.75
2022-08-28T05:07:44.988Z,129.38
2022-08-28T05:08:44.862Z,129.38
2022-08-28T05:09:44.722Z,146.25
2022-08-28T05:10:45.627Z,185.62
2022-08-28T05:11:44.709Z,202.50
2022-08-28T05:12:45.454Z,196.88
2022-08-28T05:13:44.625Z,180.00
2022-08-28T05:14:44.494Z,174.38
2022-08-28T05:15:44.630Z,174.38
2022-08-28T05:16:44.688Z,180.00
2022-08-28T05:17:44.609Z,185.62
2022-08-28T05:18:44.593Z,213.75
2022-08-28T05:19:45.425Z,230.62
2022-08-28T05:20:44.571Z,208.12
2022-08-28T05:21:44.951Z,258.75
2022-08-28T05:22:44.613Z,303.75
2022-08-28T05:23:45.522Z,303.75
2022-08-28T05:24:44.709Z,315.00
2022-08-28T05:25:46.130Z,236.25
2022-08-28T05:26:44.477Z,225.00
2022-08-28T05:27:44.635Z,230.62
2022-08-28T05:28:44.494Z,241.88
2022-08-28T05:29:44.460Z,247.50
2022-08-28T05:30:44.454Z,258.75
2022-08-28T05:31:46.434Z,270.00
2022-08-28T05:32:44.499Z,275.62
2022-08-28T05:33:44.462Z,286.88
2022-08-28T05:34:44.459Z,298.12
2022-08-28T05:35:45.339Z,309.38
2022-08-28T05:36:44.783Z,326.25
2022-08-28T05:37:44.670Z,348.75
2022-08-28T05:38:45.136Z,365.62
2022-08-28T05:39:44.537Z,421.88
2022-08-28T05:40:44.344Z,691.88
2022-08-28T05:42:12.662Z,686.25
2022-08-28T05:42:45.051Z,630.00
2022-08-28T05:43:46.484Z,590.62
2022-08-28T05:44:44.747Z,641.25
2022-08-28T05:45:44.691Z,900.00
2022-08-28T05:46:44.584Z,1046.25
2022-08-28T05:47:44.486Z,916.88
2022-08-28T05:48:44.450Z,742.50
2022-08-28T05:49:44.847Z,641.25
2022-08-28T05:50:48.127Z,742.50
2022-08-28T05:51:44.472Z,905.62
2022-08-28T05:52:44.508Z,669.38
2022-08-28T05:53:44.852Z,551.25
2022-08-28T05:54:44.649Z,556.88
2022-08-28T05:55:45.422Z,618.75
2022-08-28T05:56:46.139Z,860.62
2022-08-28T05:57:44.688Z,1271.25
2022-08-28T05:58:44.819Z,849.38
2022-08-28T05:59:45.114Z,635.62
2022-08-28T06:00:44.502Z,646.88
2022-08-28T06:01:45.011Z,663.75
2022-08-28T06:02:45.398Z,686.25
2022-08-28T06:03:45.281Z,950.62
2022-08-28T06:04:56.002Z,1440.00
2022-08-28T06:05:45.651Z,1614.38
2022-08-28T06:06:44.436Z,1057.50
2022-08-28T06:07:44.395Z,759.38
2022-08-28T06:08:58.693Z,736.88
2022-08-28T06:09:45.653Z,753.75
2022-08-28T06:11:16.704Z,770.62
2022-08-28T06:11:44.755Z,787.50
2022-08-28T06:12:44.468Z,804.38
2022-08-28T06:13:44.273Z,826.88
2022-08-28T06:14:44.921Z,855.00
2022-08-28T06:15:44.709Z,900.00
2022-08-28T06:16:45.120Z,1850.62
2022-08-28T06:17:45.235Z,2317.50
2022-08-28T06:18:44.450Z,2176.88
2022-08-28T06:20:11.346Z,2081.25
2022-08-28T06:22:30.905Z,1906.88
2022-08-28T06:23:31.835Z,2536.88
2022-08-28T06:24:33.128Z,2570.62
2022-08-28T06:25:32.180Z,2626.88
2022-08-28T06:26:32.151Z,2632.50
2022-08-28T06:27:32.114Z,2559.38
2022-08-28T06:28:32.207Z,2615.62
2022-08-28T06:29:32.278Z,2632.50
2022-08-28T06:30:32.163Z,2638.12
2022-08-28T06:31:33.395Z,2728.12
2022-08-28T06:32:33.876Z,2722.50
2022-08-28T06:33:32.832Z,2795.62
2022-08-28T06:34:32.344Z,1316.25
2022-08-28T06:35:32.829Z,2925.00
2022-08-28T06:36:32.835Z,2936.25
2022-08-28T06:37:32.874Z,2250.00
2022-08-28T06:38:32.230Z,2216.25
2022-08-28T06:40:09.395Z,2970.00
2022-08-28T06:40:33.135Z,2396.25
2022-08-28T06:42:06.147Z,3015.00
2022-08-28T06:42:32.149Z,2711.25
2022-08-28T06:44:05.917Z,2846.25
2022-08-28T06:44:32.021Z,3037.50
2022-08-28T06:45:35.060Z,2761.88
2022-08-28T06:46:31.927Z,1248.75
2022-08-28T06:47:32.093Z,1181.25
2022-08-28T06:48:32.699Z,2716.88
2022-08-28T06:49:32.031Z,1158.75
2022-08-28T06:50:32.721Z,2739.38
2022-08-28T06:51:31.858Z,2469.38
2022-08-28T06:52:31.908Z,2413.12
2022-08-28T06:53:31.820Z,1417.50
2022-08-28T06:54:31.952Z,950.62
2022-08-28T06:55:31.941Z,894.38
2022-08-28T06:56:31.832Z,1507.50
2022-08-28T06:57:31.805Z,1203.75
2022-08-28T06:58:31.923Z,1035.00
2022-08-28T06:59:31.916Z,1023.75
2022-08-28T07:00:31.833Z,2283.75
2022-08-28T07:01:31.801Z,2874.38
2022-08-28T07:02:32.029Z,1569.38
2022-08-28T07:03:31.847Z,1091.25
2022-08-28T07:04:31.776Z,3009.38
2022-08-28T07:05:31.873Z,1164.38
2022-08-28T07:06:31.770Z,956.25
2022-08-28T07:07:32.606Z,939.38
2022-08-28T07:08:31.810Z,933.75
2022-08-28T07:09:31.704Z,2176.88
2022-08-28T07:11:06.107Z,1029.38
2022-08-28T07:11:31.845Z,1029.38
2022-08-28T07:12:32.465Z,928.12
2022-08-28T07:13:33.942Z,866.25
2022-08-28T07:14:33.465Z,916.88
2022-08-28T07:15:34.003Z,2289.38
2022-08-28T07:16:33.969Z,1074.38
2022-08-28T07:17:32.296Z,1732.50
2022-08-28T07:18:32.510Z,3228.75
2022-08-28T07:19:33.976Z,2683.12
2022-08-28T07:22:29.829Z,3346.88
2022-08-28T07:23:30.756Z,3498.75
2022-08-28T07:24:31.171Z,2323.12
2022-08-28T07:25:32.889Z,2278.12
2022-08-28T07:26:33.036Z,2019.38
2022-08-28T07:27:31.135Z,1828.12
2022-08-28T07:28:32.757Z,2801.25
2022-08-28T07:29:31.016Z,1681.88
2022-08-28T07:30:32.494Z,3555.00
2022-08-28T07:31:31.189Z,1440.00
2022-08-28T07:32:31.029Z,1046.25
2022-08-28T07:33:32.650Z,933.75
2022-08-28T07:34:30.974Z,1136.25
2022-08-28T07:35:33.361Z,1018.12
2022-08-28T07:36:31.796Z,905.62
2022-08-28T07:37:31.030Z,855.00
2022-08-28T07:38:31.049Z,855.00
2022-08-28T07:39:31.680Z,855.00
2022-08-28T07:40:30.932Z,1400.62
2022-08-28T07:41:31.206Z,1395.00
2022-08-28T07:42:33.929Z,3273.75
2022-08-28T07:43:32.131Z,1440.00
2022-08-28T07:44:30.971Z,1018.12
2022-08-28T07:45:31.011Z,1029.38
2022-08-28T07:46:31.774Z,1361.25
2022-08-28T07:47:30.892Z,663.75
2022-08-28T07:48:30.999Z,517.50
2022-08-28T07:49:30.913Z,466.88
2022-08-28T07:50:30.998Z,433.12
2022-08-28T07:51:31.774Z,427.50
2022-08-28T07:52:32.797Z,444.38
2022-08-28T07:53:36.356Z,495.00
2022-08-28T07:54:32.642Z,590.62
2022-08-28T07:55:30.834Z,720.00
2022-08-28T07:56:30.896Z,866.25
2022-08-28T07:57:30.842Z,2891.25
2022-08-28T07:58:32.272Z,3341.25
2022-08-28T07:59:36.935Z,3481.88
2022-08-28T08:00:32.925Z,1254.38
2022-08-28T08:01:33.091Z,1254.38
2022-08-28T08:02:31.078Z,1035.00
2022-08-28T08:03:30.851Z,1136.25
2022-08-28T08:04:31.279Z,3453.75
2022-08-28T08:05:31.601Z,3639.38
2022-08-28T08:06:33.818Z,3706.88
2022-08-28T08:07:32.676Z,1406.25
2022-08-28T08:08:30.714Z,3088.12
2022-08-28T08:09:30.940Z,2368.12
2022-08-28T08:10:34.244Z,1940.62
2022-08-28T08:11:32.166Z,3290.62
2022-08-28T08:12:33.276Z,3403.12
2022-08-28T08:13:30.736Z,3690.00
2022-08-28T08:14:32.301Z,3611.25
2022-08-28T08:15:31.872Z,3555.00
2022-08-28T08:16:31.275Z,3701.25
2022-08-28T08:17:31.277Z,3735.00
2022-08-28T08:19:06.828Z,3667.50
2022-08-28T08:19:30.548Z,3706.88
2022-08-28T08:20:31.755Z,3622.50
2022-08-28T08:21:31.550Z,3712.50
2022-08-28T08:22:31.419Z,3200.62
2022-08-28T08:24:04.444Z,3690.00
2022-08-28T08:24:30.464Z,3290.62
2022-08-28T08:25:30.468Z,3785.62
2022-08-28T08:26:30.448Z,3751.88
2022-08-28T08:27:30.429Z,3751.88
2022-08-28T08:28:30.436Z,3369.38
2022-08-28T08:29:30.528Z,1496.25
2022-08-28T08:30:30.437Z,3481.88
2022-08-28T08:31:30.508Z,3453.75
2022-08-28T08:32:30.458Z,3532.50
2022-08-28T08:33:31.346Z,3307.50
2022-08-28T08:34:30.527Z,1411.88
2022-08-28T08:35:30.446Z,1361.25
2022-08-28T08:36:30.455Z,1276.88
2022-08-28T08:37:30.473Z,1068.75
2022-08-28T08:38:30.405Z,1057.50
2022-08-28T08:39:31.798Z,1175.62
2022-08-28T08:40:30.446Z,1119.38
2022-08-28T08:41:30.402Z,1355.62
2022-08-28T08:42:30.389Z,2902.50
2022-08-28T08:43:30.377Z,1485.00
2022-08-28T08:44:33.456Z,3723.75
2022-08-28T08:45:30.362Z,3622.50
2022-08-28T08:46:30.370Z,1884.38
2022-08-28T08:47:30.399Z,3802.50
2022-08-28T08:48:30.377Z,3543.75
2022-08-28T08:49:30.441Z,3864.38
2022-08-28T08:50:30.305Z,3808.12
2022-08-28T08:51:30.356Z,3678.75
2022-08-28T08:52:30.286Z,3301.88
2022-08-28T08:53:30.270Z,3425.62
2022-08-28T08:54:30.301Z,3763.12
2022-08-28T08:55:30.280Z,2221.88
2022-08-28T08:56:34.564Z,3240.00
2022-08-28T08:57:30.298Z,3836.25
2022-08-28T08:58:30.370Z,3836.25
2022-08-28T08:59:30.228Z,3858.75
2022-08-28T09:00:30.311Z,3605.62
2022-08-28T09:01:30.290Z,1237.50
2022-08-28T09:02:31.564Z,1428.75
2022-08-28T09:03:30.322Z,1614.38
2022-08-28T09:04:30.225Z,1276.88
2022-08-28T09:05:30.276Z,3735.00
2022-08-28T09:06:30.223Z,3678.75
2022-08-28T09:07:30.149Z,2120.62
2022-08-28T09:08:30.970Z,3369.38
2022-08-28T09:09:30.152Z,1248.75
2022-08-28T09:10:30.169Z,1220.62
2022-08-28T09:11:30.209Z,3251.25
2022-08-28T09:12:30.121Z,2154.38
2022-08-28T09:13:30.146Z,1715.62
2022-08-28T09:14:30.199Z,1620.00
2022-08-28T09:15:30.146Z,1580.62
2022-08-28T09:16:30.133Z,1333.12
2022-08-28T09:17:30.114Z,1563.75
2022-08-28T09:18:30.128Z,1535.62
2022-08-28T09:19:30.085Z,1507.50
2022-08-28T09:20:33.165Z,1496.25
2022-08-28T09:21:30.058Z,1490.62
2022-08-28T09:22:31.053Z,1468.12
2022-08-28T09:23:30.299Z,1451.25
2022-08-28T09:24:30.045Z,1451.25
2022-08-28T09:25:30.104Z,1445.62
2022-08-28T09:26:30.065Z,1423.12
2022-08-28T09:27:30.039Z,1428.75
2022-08-28T09:28:30.036Z,1423.12
2022-08-28T09:29:29.994Z,1428.75
2022-08-28T09:30:29.973Z,1434.38
2022-08-28T09:31:30.056Z,1400.62
2022-08-28T09:32:29.965Z,1383.75
2022-08-28T09:33:30.009Z,1395.00
2022-08-28T09:34:29.980Z,1383.75
2022-08-28T09:35:29.983Z,1366.88
2022-08-28T09:36:29.937Z,1378.12
2022-08-28T09:37:29.955Z,1395.00
2022-08-28T09:38:29.957Z,1406.25
2022-08-28T09:39:29.907Z,1417.50
2022-08-28T09:40:31.940Z,1423.12
2022-08-28T09:41:30.570Z,1440.00
2022-08-28T09:42:30.019Z,1456.88
2022-08-28T09:43:29.891Z,1496.25
2022-08-28T09:44:29.894Z,1530.00
2022-08-28T09:45:29.910Z,1591.88
2022-08-28T09:46:29.952Z,1665.00
2022-08-28T09:47:29.871Z,1687.50
2022-08-28T09:48:29.839Z,1710.00
2022-08-28T09:49:29.914Z,1800.00
2022-08-28T09:50:29.842Z,1884.38
2022-08-28T09:51:31.176Z,1861.88
2022-08-28T09:52:29.890Z,1777.50
2022-08-28T09:53:30.591Z,1698.75
2022-08-28T09:54:29.828Z,1620.00
2022-08-28T09:55:29.851Z,1535.62
2022-08-28T09:56:29.848Z,1479.38
2022-08-28T09:57:29.828Z,1417.50
2022-08-28T09:58:29.824Z,1361.25
2022-08-28T09:59:29.772Z,1338.75
2022-08-28T10:00:29.837Z,1288.12
2022-08-28T10:01:29.868Z,1243.12
2022-08-28T10:02:29.848Z,1203.75
2022-08-28T10:03:29.820Z,1170.00
2022-08-28T10:04:29.857Z,1136.25
2022-08-28T10:05:29.739Z,1113.75
2022-08-28T10:06:29.732Z,1096.88
2022-08-28T10:07:29.770Z,1074.38
2022-08-28T10:08:29.736Z,1074.38
2022-08-28T10:09:30.576Z,1057.50
2022-08-28T10:10:29.676Z,1040.62
2022-08-28T10:11:29.807Z,1029.38
2022-08-28T10:12:31.396Z,1018.12
2022-08-28T10:13:29.678Z,1001.25
2022-08-28T10:14:29.729Z,995.62
2022-08-28T10:15:29.823Z,984.38
2022-08-28T10:16:30.388Z,961.88
2022-08-28T10:17:29.689Z,961.88
2022-08-28T10:18:29.684Z,961.88
2022-08-28T10:19:29.612Z,956.25
2022-08-28T10:20:30.631Z,956.25
2022-08-28T10:21:29.637Z,945.00
2022-08-28T10:22:29.614Z,922.50
2022-08-28T10:23:29.573Z,911.25
2022-08-28T10:24:29.707Z,883.12
2022-08-28T10:25:29.593Z,871.88
2022-08-28T10:26:29.616Z,871.88
2022-08-28T10:27:29.575Z,883.12
2022-08-28T10:28:30.411Z,883.12
2022-08-28T10:29:29.560Z,877.50
2022-08-28T10:30:29.571Z,871.88
2022-08-28T10:31:31.557Z,866.25
2022-08-28T10:32:29.554Z,860.62
2022-08-28T10:33:29.554Z,832.50
2022-08-28T10:34:29.536Z,832.50
2022-08-28T10:35:29.521Z,832.50
2022-08-28T10:36:34.840Z,832.50
2022-08-28T10:37:30.498Z,826.88
2022-08-28T10:38:29.497Z,815.62
2022-08-28T10:39:29.458Z,804.38
2022-08-28T10:40:29.632Z,804.38
2022-08-28T10:41:29.499Z,804.38
2022-08-28T10:42:36.041Z,798.75
2022-08-28T10:43:30.475Z,793.12
2022-08-28T10:45:04.435Z,776.25
2022-08-28T10:45:31.180Z,776.25
2022-08-28T10:46:31.470Z,776.25
2022-08-28T10:47:29.442Z,770.62
2022-08-28T10:49:03.555Z,770.62
2022-08-28T10:49:29.403Z,770.62
2022-08-28T10:50:29.395Z,759.38
2022-08-28T10:51:34.713Z,759.38
2022-08-28T10:52:30.373Z,759.38
2022-08-28T10:53:30.129Z,753.75
2022-08-28T10:54:29.621Z,748.12
2022-08-28T10:55:29.503Z,742.50
2022-08-28T10:56:29.453Z,731.25
2022-08-28T10:57:29.371Z,731.25
2022-08-28T10:58:30.027Z,731.25
2022-08-28T10:59:29.361Z,725.62
2022-08-28T11:00:29.315Z,725.62
2022-08-28T11:01:29.397Z,720.00
2022-08-28T11:02:29.376Z,714.38
2022-08-28T11:03:35.833Z,708.75
2022-08-28T11:04:31.275Z,708.75
2022-08-28T11:05:29.272Z,703.12
2022-08-28T11:06:29.260Z,697.50
2022-08-28T11:07:29.279Z,691.88
2022-08-28T11:08:30.163Z,686.25
2022-08-28T11:09:29.262Z,675.00
2022-08-28T11:10:29.304Z,663.75
2022-08-28T11:11:29.271Z,669.38
2022-08-28T11:12:29.253Z,675.00
2022-08-28T11:13:29.363Z,675.00
2022-08-28T11:14:29.267Z,669.38
2022-08-28T11:15:36.383Z,669.38
2022-08-28T11:16:31.388Z,669.38
2022-08-28T11:17:29.179Z,669.38
2022-08-28T11:18:29.160Z,658.12
2022-08-28T11:19:30.530Z,658.12
2022-08-28T11:20:29.198Z,658.12
2022-08-28T11:21:29.170Z,652.50
2022-08-28T11:22:29.154Z,646.88
2022-08-28T11:23:29.206Z,646.88
2022-08-28T11:24:29.488Z,635.62
2022-08-28T11:25:32.554Z,624.38
2022-08-28T11:26:29.158Z,641.25
2022-08-28T11:27:29.973Z,613.12
2022-08-28T11:28:31.108Z,613.12
2022-08-28T11:29:32.717Z,601.88
2022-08-28T11:30:29.122Z,613.12
2022-08-28T11:31:29.654Z,613.12
2022-08-28T11:32:30.005Z,618.75
2022-08-28T11:33:29.068Z,613.12
2022-08-28T11:34:29.053Z,613.12
2022-08-28T11:35:29.074Z,618.75
2022-08-28T11:36:29.735Z,607.50
2022-08-28T11:37:29.060Z,607.50
2022-08-28T11:38:29.102Z,607.50
2022-08-28T11:39:29.030Z,607.50
2022-08-28T11:40:29.110Z,607.50
2022-08-28T11:41:29.046Z,596.25
2022-08-28T11:42:29.043Z,601.88
2022-08-28T11:43:29.072Z,607.50
2022-08-28T11:44:28.999Z,596.25
2022-08-28T11:45:28.987Z,596.25
2022-08-28T11:46:29.791Z,596.25
2022-08-28T11:47:28.990Z,601.88
2022-08-28T11:48:28.983Z,590.62
2022-08-28T11:49:29.751Z,596.25
2022-08-28T11:50:28.953Z,590.62
2022-08-28T11:51:28.964Z,590.62
2022-08-28T11:52:28.937Z,590.62
2022-08-28T11:53:28.941Z,590.62
2022-08-28T11:54:29.722Z,596.25
2022-08-28T11:55:29.688Z,590.62
2022-08-28T11:56:31.340Z,590.62
2022-08-28T11:57:28.925Z,590.62
2022-08-28T11:58:29.871Z,590.62
2022-08-28T11:59:35.333Z,585.00
2022-08-28T12:00:29.878Z,585.00
2022-08-28T12:01:28.869Z,585.00
2022-08-28T12:02:28.910Z,585.00
2022-08-28T12:03:28.846Z,579.38
2022-08-28T12:04:28.895Z,585.00
2022-08-28T12:05:28.824Z,579.38
2022-08-28T12:06:28.814Z,585.00
2022-08-28T12:07:30.666Z,579.38
2022-08-28T12:08:30.002Z,579.38
2022-08-28T12:09:28.861Z,579.38
2022-08-28T12:10:28.780Z,601.88
2022-08-28T12:11:28.781Z,590.62
2022-08-28T12:12:28.771Z,585.00
2022-08-28T12:13:28.828Z,585.00
2022-08-28T12:14:28.779Z,585.00
2022-08-28T12:15:28.773Z,585.00
2022-08-28T12:16:28.799Z,585.00
2022-08-28T12:17:31.159Z,596.25
2022-08-28T12:18:29.731Z,585.00
2022-08-28T12:19:28.803Z,585.00
2022-08-28T12:20:28.727Z,585.00
2022-08-28T12:21:29.246Z,579.38
2022-08-28T12:22:28.719Z,579.38
2022-08-28T12:23:28.758Z,590.62
2022-08-28T12:24:28.704Z,579.38
2022-08-28T12:25:29.362Z,579.38
2022-08-28T12:26:29.565Z,573.75
2022-08-28T12:27:28.661Z,573.75
2022-08-28T12:28:28.664Z,573.75
2022-08-28T12:29:28.681Z,573.75
2022-08-28T12:30:28.706Z,573.75
2022-08-28T12:31:28.665Z,573.75
2022-08-28T12:32:28.647Z,573.75
2022-08-28T12:33:28.624Z,573.75
2022-08-28T12:34:30.212Z,573.75
2022-08-28T12:35:29.960Z,573.75
2022-08-28T12:36:29.619Z,579.38
2022-08-28T12:37:28.624Z,573.75
2022-08-28T12:38:28.627Z,573.75
2022-08-28T12:39:28.575Z,573.75
2022-08-28T12:40:28.820Z,573.75
2022-08-28T12:41:28.580Z,579.38
2022-08-28T12:42:28.559Z,573.75
2022-08-28T12:43:28.575Z,573.75
2022-08-28T12:44:28.590Z,568.12
2022-08-28T12:45:28.588Z,568.12
2022-08-28T12:46:28.550Z,568.12
2022-08-28T12:47:29.265Z,568.12
2022-08-28T12:48:28.573Z,568.12
2022-08-28T12:49:28.568Z,568.12
2022-08-28T12:50:28.541Z,568.12
2022-08-28T12:51:28.532Z,562.50
2022-08-28T12:52:28.497Z,562.50
2022-08-28T12:53:28.521Z,562.50
2022-08-28T12:54:31.263Z,562.50
2022-08-28T12:55:28.530Z,562.50
2022-08-28T12:56:28.519Z,556.88
2022-08-28T12:57:28.452Z,556.88
2022-08-28T12:58:29.521Z,556.88
2022-08-28T12:59:29.471Z,562.50
2022-08-28T13:00:28.496Z,562.50
2022-08-28T13:01:29.302Z,556.88
2022-08-28T13:02:29.339Z,562.50
2022-08-28T13:03:28.433Z,556.88
2022-08-28T13:04:28.412Z,556.88
2022-08-28T13:05:28.439Z,556.88
2022-08-28T13:06:28.967Z,551.25
2022-08-28T13:07:28.510Z,556.88
2022-08-28T13:08:28.410Z,551.25
2022-08-28T13:09:28.447Z,562.50
2022-08-28T13:10:28.412Z,551.25
2022-08-28T13:11:28.391Z,551.25
2022-08-28T13:12:37.304Z,551.25
2022-08-28T13:13:29.352Z,551.25